createdAt,value
2023-03-16T00:01:42.057Z,100080.47
2023-03-16T00:04:08.439Z,100072.13
2023-03-16T00:06:36.606Z,100061.06
2023-03-16T00:09:03.928Z,100054.22
2023-03-16T00:11:30.629Z,100060.38
2023-03-16T00:13:58.524Z,100069.53
2023-03-16T00:16:25.078Z,100069.97
2023-03-16T00:18:51.452Z,100063.00
2023-03-16T00:21:17.761Z,100052.84
2023-03-16T00:23:44.171Z,100055.59
2023-03-16T00:26:10.488Z,100054.00
2023-03-16T00:28:36.886Z,100060.53
2023-03-16T00:31:08.624Z,100054.22
2023-03-16T00:33:35.276Z,100070.06
2023-03-16T00:36:03.352Z,100064.28
2023-03-16T00:38:34.528Z,100069.91
2023-03-16T00:41:03.819Z,100079.69
2023-03-16T00:43:31.498Z,100075.31
2023-03-16T00:46:01.077Z,100087.84
2023-03-16T00:48:27.542Z,100080.94
2023-03-16T00:50:54.358Z,100079.03
2023-03-16T00:53:22.102Z,100076.06
2023-03-16T00:55:48.676Z,100073.78
2023-03-16T00:58:15.096Z,100083.47
2023-03-16T01:00:41.497Z,100085.09
2023-03-16T01:03:07.887Z,100080.72
2023-03-16T01:05:34.261Z,100086.19
2023-03-16T01:08:02.573Z,100088.94
2023-03-16T01:10:29.305Z,100081.25
2023-03-16T01:12:56.334Z,100075.31
2023-03-16T01:15:22.788Z,100059.75
2023-03-16T01:17:49.102Z,100067.81
2023-03-16T01:20:19.194Z,100070.78
2023-03-16T01:22:45.671Z,100074.22
2023-03-16T01:25:13.207Z,100069.78
2023-03-16T01:27:42.106Z,100067.50
2023-03-16T01:30:12.246Z,100054.09
2023-03-16T01:32:39.800Z,100051.13
2023-03-16T01:35:07.845Z,100041.13
2023-03-16T01:37:34.186Z,100041.81
2023-03-16T01:40:12.508Z,100025.91
2023-03-16T01:42:46.195Z,100032.84
2023-03-16T01:45:50.147Z,100035.13
2023-03-16T01:48:16.712Z,100030.22
2023-03-16T01:50:43.295Z,100031.72
2023-03-16T01:53:11.564Z,100038.38
2023-03-16T01:55:38.167Z,100039.69
2023-03-16T01:58:05.949Z,100038.78
2023-03-16T02:00:33.592Z,100031.31
2023-03-16T02:03:13.645Z,100038.47
2023-03-16T02:05:54.859Z,100024.66
2023-03-16T02:08:24.441Z,100026.81
2023-03-16T02:10:54.464Z,100031.53
2023-03-16T02:13:24.611Z,100025.06
2023-03-16T02:15:53.341Z,100020.31
2023-03-16T02:18:28.642Z,100018.22
2023-03-16T02:21:19.447Z,100016.25
2023-03-16T02:23:46.796Z,100003.56
2023-03-16T02:26:40.062Z,99989.16
2023-03-16T02:29:20.503Z,99992.31
2023-03-16T02:31:53.253Z,99989.47
2023-03-16T02:34:19.579Z,99990.13
2023-03-16T02:36:49.009Z,100000.78
2023-03-16T02:39:18.620Z,99979.00
2023-03-16T02:41:46.912Z,99981.94
2023-03-16T02:44:45.791Z,99978.41
2023-03-16T02:47:34.225Z,99991.41
2023-03-16T02:50:00.644Z,99971.50
2023-03-16T02:52:26.982Z,99976.41
2023-03-16T02:54:53.664Z,99983.94
2023-03-16T02:57:21.002Z,99980.88
2023-03-16T02:59:47.328Z,99971.56
2023-03-16T03:02:14.706Z,99975.81
2023-03-16T03:04:46.041Z,99977.31
2023-03-16T03:07:14.180Z,99971.03
2023-03-16T03:09:56.590Z,99962.81
2023-03-16T03:12:23.044Z,99977.00
2023-03-16T03:14:49.489Z,99966.53
2023-03-16T03:17:18.899Z,99982.91
2023-03-16T03:19:47.306Z,99966.88
2023-03-16T03:22:18.341Z,99975.69
2023-03-16T03:24:44.928Z,99968.66
2023-03-16T03:27:11.357Z,99973.53
2023-03-16T03:29:38.971Z,99974.63
2023-03-16T03:32:05.658Z,99976.25
2023-03-16T03:34:32.538Z,99959.63
2023-03-16T03:36:59.402Z,99967.06
2023-03-16T03:39:26.100Z,99949.91
2023-03-16T03:41:54.444Z,99958.81
2023-03-16T03:44:22.996Z,99958.09
2023-03-16T03:46:50.192Z,99955.75
2023-03-16T03:49:16.969Z,99956.50
2023-03-16T03:51:44.051Z,99962.31
2023-03-16T03:54:14.387Z,99965.88
2023-03-16T03:56:49.843Z,99962.81
2023-03-16T03:59:16.668Z,99958.31
2023-03-16T04:02:03.443Z,99962.31
2023-03-16T04:04:41.039Z,99954.50
2023-03-16T04:07:09.926Z,99947.47
2023-03-16T04:09:36.494Z,99949.53
2023-03-16T04:12:05.997Z,99935.53
2023-03-16T04:14:33.369Z,99942.06
2023-03-16T04:17:04.549Z,99938.09
2023-03-16T04:19:31.660Z,99952.66
2023-03-16T04:21:58.298Z,99946.56
2023-03-16T04:24:24.714Z,99949.75
2023-03-16T04:26:51.536Z,99955.00
2023-03-16T04:29:18.042Z,99951.91
2023-03-16T04:31:45.630Z,99953.94
2023-03-16T04:34:13.703Z,99944.47
2023-03-16T04:36:41.665Z,99946.88
2023-03-16T04:39:09.093Z,99943.56
2023-03-16T04:41:35.442Z,99948.34
2023-03-16T04:44:14.574Z,99941.19
2023-03-16T04:46:41.138Z,99943.28
2023-03-16T04:49:10.363Z,99948.22
2023-03-16T04:51:40.429Z,99940.44
2023-03-16T04:54:09.538Z,99939.75
2023-03-16T04:56:41.401Z,99942.06
2023-03-16T04:59:14.658Z,99921.16
2023-03-16T05:01:46.901Z,99925.63
2023-03-16T05:04:19.537Z,99925.84
2023-03-16T05:06:46.635Z,99922.53
2023-03-16T05:09:13.967Z,99928.91
2023-03-16T05:11:40.479Z,99919.75
2023-03-16T05:14:09.795Z,99915.06
2023-03-16T05:16:49.279Z,99910.78
2023-03-16T05:19:16.128Z,99916.56
2023-03-16T05:21:43.403Z,99916.88
2023-03-16T05:24:09.777Z,99919.56
2023-03-16T05:26:36.147Z,99915.28
2023-03-16T05:29:04.884Z,99909.63
2023-03-16T05:31:36.324Z,99904.56
2023-03-16T05:34:08.260Z,99906.00
2023-03-16T05:36:36.101Z,99905.63
2023-03-16T05:39:08.564Z,99902.50
2023-03-16T05:41:38.476Z,99896.03
2023-03-16T05:44:28.270Z,99905.16
2023-03-16T05:47:04.177Z,99899.22
2023-03-16T05:49:32.434Z,99897.81
2023-03-16T05:52:01.814Z,99908.13
2023-03-16T05:54:30.297Z,99907.75
2023-03-16T05:56:56.637Z,99901.13
2023-03-16T05:59:23.451Z,99897.19
2023-03-16T06:01:54.339Z,99909.53
2023-03-16T06:04:21.766Z,99918.16
2023-03-16T06:06:48.645Z,99914.25
2023-03-16T06:09:26.241Z,99902.56
2023-03-16T06:11:53.212Z,99905.59
2023-03-16T06:14:20.112Z,99911.81
2023-03-16T06:16:46.844Z,99911.66
2023-03-16T06:19:14.718Z,99910.78
2023-03-16T06:21:41.906Z,99901.63
2023-03-16T06:24:10.287Z,99907.31
2023-03-16T06:26:36.833Z,99913.16
2023-03-16T06:29:05.740Z,99920.13
2023-03-16T06:31:34.611Z,99908.19
2023-03-16T06:34:02.530Z,99920.44
2023-03-16T06:36:29.886Z,99917.31
2023-03-16T06:38:59.185Z,99924.78
2023-03-16T06:41:32.074Z,99926.22
2023-03-16T06:43:58.568Z,99925.56
2023-03-16T06:46:25.023Z,99925.88
2023-03-16T06:48:51.991Z,99923.81
2023-03-16T06:51:19.163Z,99924.44
2023-03-16T06:53:46.787Z,99924.84
2023-03-16T06:56:13.562Z,99919.41
2023-03-16T06:58:42.355Z,99919.63
2023-03-16T07:01:08.782Z,99918.16
2023-03-16T07:03:35.192Z,99918.44
2023-03-16T07:06:09.443Z,99923.72
2023-03-16T07:08:36.237Z,99913.84
2023-03-16T07:11:02.707Z,99921.22
2023-03-16T07:13:29.792Z,99917.25
2023-03-16T07:15:56.610Z,99920.09
2023-03-16T07:18:25.930Z,99923.88
2023-03-16T07:20:53.928Z,99923.81
2023-03-16T07:23:22.262Z,99913.16
2023-03-16T07:25:48.602Z,99919.72
2023-03-16T07:28:17.602Z,99921.59
2023-03-16T07:31:02.158Z,99925.69
2023-03-16T07:33:33.178Z,99926.13
2023-03-16T07:36:06.165Z,99926.22
2023-03-16T07:38:37.669Z,99935.50
2023-03-16T07:41:04.755Z,99929.72
2023-03-16T07:43:31.230Z,99932.03
2023-03-16T07:45:57.703Z,99923.88
2023-03-16T07:48:25.905Z,99920.91
2023-03-16T07:50:56.477Z,99919.09
2023-03-16T07:53:24.214Z,99923.59
2023-03-16T07:56:01.293Z,99919.59
2023-03-16T07:58:31.164Z,99925.59
2023-03-16T08:01:01.514Z,99913.94
2023-03-16T08:03:29.011Z,99920.28
2023-03-16T08:05:55.915Z,99916.84
2023-03-16T08:08:23.084Z,99913.03
2023-03-16T08:10:52.136Z,99911.88
2023-03-16T08:13:22.190Z,99915.72
2023-03-16T08:15:58.824Z,99917.91
2023-03-16T08:18:36.793Z,99912.19
2023-03-16T08:21:03.420Z,99904.47
2023-03-16T08:23:33.417Z,99908.66
2023-03-16T08:26:00.975Z,99911.03
2023-03-16T08:28:27.720Z,99915.03
2023-03-16T08:30:55.896Z,99903.59
2023-03-16T08:33:38.545Z,99901.53
2023-03-16T08:36:07.629Z,99900.47
2023-03-16T08:38:34.798Z,99891.56
2023-03-16T08:41:06.028Z,99888.94
2023-03-16T08:43:33.957Z,99885.59
2023-03-16T08:46:01.596Z,99897.81
2023-03-16T08:48:37.794Z,99889.38
2023-03-16T08:51:05.853Z,99892.44
2023-03-16T08:53:32.331Z,99883.22
2023-03-16T08:56:11.306Z,99869.22
2023-03-16T08:58:38.837Z,99879.69
2023-03-16T09:01:06.085Z,99872.75
2023-03-16T09:03:35.125Z,99876.19
2023-03-16T09:06:08.097Z,99878.00
2023-03-16T09:08:34.408Z,99868.47
2023-03-16T09:11:02.518Z,99856.28
2023-03-16T09:13:29.270Z,99858.25
2023-03-16T09:15:56.483Z,99854.56
2023-03-16T09:18:25.996Z,99845.25
2023-03-16T09:20:59.886Z,99857.56
2023-03-16T09:23:27.583Z,99851.34
2023-03-16T09:25:57.786Z,99848.81
2023-03-16T09:28:25.147Z,99846.72
2023-03-16T09:30:51.449Z,99852.09
2023-03-16T09:33:17.815Z,99855.56
2023-03-16T09:35:46.050Z,99857.44
2023-03-16T09:38:12.511Z,99854.38
2023-03-16T09:40:39.465Z,99855.41
2023-03-16T09:43:40.721Z,99860.50
2023-03-16T09:46:17.218Z,99842.59
2023-03-16T09:48:43.647Z,99844.66
2023-03-16T09:51:53.210Z,99853.09
2023-03-16T09:54:32.038Z,99849.25
2023-03-16T09:57:01.325Z,99853.31
2023-03-16T09:59:28.491Z,99850.19
2023-03-16T10:02:20.534Z,99837.44
2023-03-16T10:05:01.129Z,99852.19
2023-03-16T10:07:34.225Z,99860.03
2023-03-16T10:10:21.292Z,99845.00
2023-03-16T10:12:52.404Z,99846.63
2023-03-16T10:15:28.086Z,99833.66
2023-03-16T10:18:07.070Z,99840.22
2023-03-16T10:20:34.821Z,99827.34
2023-03-16T10:23:14.581Z,99826.53
2023-03-16T10:25:47.034Z,99826.00
2023-03-16T10:28:16.843Z,99835.38
2023-03-16T10:30:44.075Z,99830.34
2023-03-16T10:33:23.974Z,99828.69
2023-03-16T10:36:13.898Z,99832.31
2023-03-16T10:38:46.781Z,99817.41
2023-03-16T10:41:21.396Z,99828.03
2023-03-16T10:44:07.436Z,99819.34
2023-03-16T10:46:57.992Z,99827.25
2023-03-16T10:49:25.600Z,99821.53
2023-03-16T10:51:57.817Z,99816.84
2023-03-16T10:54:29.427Z,99813.66
2023-03-16T10:56:56.652Z,99815.94
2023-03-16T10:59:34.833Z,99808.50
2023-03-16T11:02:20.499Z,99801.97
2023-03-16T11:04:47.831Z,99798.97
2023-03-16T11:07:19.523Z,99808.88
2023-03-16T11:09:47.645Z,99806.59
2023-03-16T11:12:31.404Z,99801.66
2023-03-16T11:15:29.296Z,99791.78
2023-03-16T11:17:56.397Z,99787.41
2023-03-16T11:20:28.556Z,99783.19
2023-03-16T11:22:54.973Z,99782.66
2023-03-16T11:25:28.768Z,99790.50
2023-03-16T11:28:11.735Z,99782.25
2023-03-16T11:31:01.236Z,99784.34
2023-03-16T11:33:30.903Z,99787.13
2023-03-16T11:36:17.764Z,99779.09
2023-03-16T11:39:06.046Z,99770.97
2023-03-16T11:42:11.336Z,99766.84
2023-03-16T11:44:50.593Z,99754.72
2023-03-16T11:47:16.991Z,99755.84
2023-03-16T11:49:55.630Z,99753.31
2023-03-16T11:52:36.012Z,99754.66
2023-03-16T11:55:27.555Z,99754.97
2023-03-16T11:58:00.096Z,99748.09
2023-03-16T12:00:40.255Z,99750.16
2023-03-16T12:03:28.697Z,99753.81
2023-03-16T12:06:13.732Z,99749.63
2023-03-16T12:09:15.425Z,99758.66
2023-03-16T12:11:42.211Z,99753.31
2023-03-16T12:14:18.113Z,99743.84
2023-03-16T12:16:50.206Z,99744.69
2023-03-16T12:19:33.605Z,99727.91
2023-03-16T12:22:15.117Z,99729.06
2023-03-16T12:24:44.474Z,99721.88
2023-03-16T12:27:17.585Z,99716.63
2023-03-16T12:29:55.415Z,99713.41
2023-03-16T12:32:29.626Z,99704.47
2023-03-16T12:35:02.767Z,99702.53
2023-03-16T12:37:44.555Z,99701.72
2023-03-16T12:40:26.962Z,99705.56
2023-03-16T12:43:20.927Z,99692.84
2023-03-16T12:45:59.275Z,99686.50
2023-03-16T12:48:30.334Z,99680.66
2023-03-16T12:51:00.509Z,99672.88
2023-03-16T12:53:45.093Z,99672.50
2023-03-16T12:56:16.320Z,99676.94
2023-03-16T12:58:45.252Z,99666.66
2023-03-16T13:01:15.125Z,99656.88
2023-03-16T13:03:43.149Z,99664.97
2023-03-16T13:06:20.327Z,99643.84
2023-03-16T13:08:51.375Z,99647.94
2023-03-16T13:11:17.767Z,99640.50
2023-03-16T13:14:08.737Z,99655.47
2023-03-16T13:16:37.421Z,99638.88
2023-03-16T13:19:24.243Z,99655.00
2023-03-16T13:22:01.802Z,99650.19
2023-03-16T13:24:36.687Z,99650.59
2023-03-16T13:27:15.477Z,99644.06
2023-03-16T13:29:53.093Z,99632.22
2023-03-16T13:32:20.936Z,99628.59
2023-03-16T13:34:49.844Z,99624.69
2023-03-16T13:37:19.922Z,99640.84
2023-03-16T13:40:00.722Z,99634.75
2023-03-16T13:42:32.522Z,99630.47
2023-03-16T13:45:03.751Z,99606.69
2023-03-16T13:47:30.136Z,99601.72
2023-03-16T13:50:00.366Z,99612.06
2023-03-16T13:52:33.327Z,99596.69
2023-03-16T13:55:13.738Z,99595.63
2023-03-16T13:57:42.851Z,99608.28
2023-03-16T14:00:20.089Z,99593.56
2023-03-16T14:02:51.685Z,99581.69
2023-03-16T14:05:22.389Z,99592.84
2023-03-16T14:07:51.080Z,99590.34
2023-03-16T14:10:17.858Z,99581.34
2023-03-16T14:12:55.652Z,99587.22
2023-03-16T14:15:25.829Z,99594.47
2023-03-16T14:17:52.953Z,99591.91
2023-03-16T14:20:25.811Z,99580.03
2023-03-16T14:22:53.385Z,99571.75
2023-03-16T14:25:27.122Z,99553.50
2023-03-16T14:28:02.026Z,99570.06
2023-03-16T14:30:30.251Z,99569.09
2023-03-16T14:33:02.069Z,99548.94
2023-03-16T14:35:40.628Z,99560.47
2023-03-16T14:38:28.288Z,99567.66
2023-03-16T14:40:57.408Z,99555.19
2023-03-16T14:43:32.569Z,99551.44
2023-03-16T14:46:00.258Z,99544.63
2023-03-16T14:48:28.213Z,99549.38
2023-03-16T14:50:57.967Z,99546.75
2023-03-16T14:53:28.143Z,99549.97
2023-03-16T14:55:55.682Z,99555.63
2023-03-16T14:58:22.737Z,99544.63
2023-03-16T15:00:53.626Z,99542.94
2023-03-16T15:03:23.685Z,99534.03
2023-03-16T15:05:51.883Z,99530.44
2023-03-16T15:08:23.561Z,99541.38
2023-03-16T15:10:50.647Z,99526.97
2023-03-16T15:13:52.777Z,99529.47
2023-03-16T15:16:21.822Z,99526.38
2023-03-16T15:18:48.428Z,99528.31
2023-03-16T15:21:24.868Z,99522.41
2023-03-16T15:23:51.398Z,99520.38
2023-03-16T15:26:25.061Z,99519.31
2023-03-16T15:28:51.734Z,99509.47
2023-03-16T15:31:18.103Z,99514.47
2023-03-16T15:33:45.445Z,99505.38
2023-03-16T15:36:15.810Z,99508.22
2023-03-16T15:38:46.101Z,99512.69
2023-03-16T15:41:13.347Z,99514.03
2023-03-16T15:43:39.722Z,99509.56
2023-03-16T15:46:06.257Z,99506.44
2023-03-16T15:48:32.980Z,99496.13
2023-03-16T15:51:07.456Z,99494.69
2023-03-16T15:53:40.207Z,99496.38
2023-03-16T15:56:10.993Z,99488.81
2023-03-16T15:58:40.206Z,99490.63
2023-03-16T16:01:08.585Z,99499.00
2023-03-16T16:03:34.942Z,99496.25
2023-03-16T16:06:01.782Z,99480.53
2023-03-16T16:08:28.077Z,99488.81
2023-03-16T16:10:55.950Z,99473.94
2023-03-16T16:13:37.422Z,99481.72
2023-03-16T16:16:17.890Z,99474.41
2023-03-16T16:18:46.504Z,99465.78
2023-03-16T16:21:23.288Z,99467.19
2023-03-16T16:23:51.545Z,99472.13
2023-03-16T16:26:48.140Z,99469.47
2023-03-16T16:29:24.498Z,99468.44
2023-03-16T16:31:53.968Z,99462.19
2023-03-16T16:34:24.231Z,99474.03
2023-03-16T16:36:51.090Z,99465.66
2023-03-16T16:39:17.471Z,99471.66
2023-03-16T16:41:44.433Z,99473.66
2023-03-16T16:44:18.196Z,99466.75
2023-03-16T16:46:44.698Z,99472.25
2023-03-16T16:49:26.070Z,99463.00
2023-03-16T16:51:52.711Z,99460.47
2023-03-16T16:54:28.652Z,99462.38
2023-03-16T16:56:57.059Z,99463.00
2023-03-16T16:59:31.268Z,99451.00
2023-03-16T17:01:58.451Z,99443.91
2023-03-16T17:04:27.780Z,99447.63
2023-03-16T17:06:58.814Z,99452.19
2023-03-16T17:09:27.217Z,99444.13
2023-03-16T17:11:56.290Z,99453.63
2023-03-16T17:14:23.863Z,99442.22
2023-03-16T17:16:51.623Z,99441.47
2023-03-16T17:19:22.267Z,99442.34
2023-03-16T17:21:49.827Z,99444.84
2023-03-16T17:24:16.962Z,99442.78
2023-03-16T17:26:46.843Z,99451.34
2023-03-16T17:29:24.371Z,99452.75
2023-03-16T17:31:51.109Z,99451.81
2023-03-16T17:34:20.754Z,99451.94
2023-03-16T17:36:47.533Z,99446.38
2023-03-16T17:39:21.278Z,99446.72
2023-03-16T17:41:55.876Z,99439.66
2023-03-16T17:44:22.397Z,99443.13
2023-03-16T17:46:48.878Z,99440.94
2023-03-16T17:49:18.094Z,99437.84
2023-03-16T17:51:45.280Z,99433.09
2023-03-16T17:54:11.833Z,99434.38
2023-03-16T17:56:40.187Z,99441.13
2023-03-16T17:59:15.211Z,99427.59
2023-03-16T18:01:43.602Z,99431.19
2023-03-16T18:04:21.503Z,99440.53
2023-03-16T18:06:48.205Z,99441.38
2023-03-16T18:09:16.154Z,99440.44
2023-03-16T18:11:47.321Z,99430.03
2023-03-16T18:14:25.384Z,99436.56
2023-03-16T18:16:52.698Z,99432.06
2023-03-16T18:19:25.053Z,99434.69
2023-03-16T18:21:53.408Z,99441.22
2023-03-16T18:24:22.015Z,99425.19
2023-03-16T18:26:48.397Z,99432.34
2023-03-16T18:29:14.726Z,99441.56
2023-03-16T18:31:42.263Z,99433.75
2023-03-16T18:34:20.616Z,99434.69
2023-03-16T18:36:47.092Z,99430.84
2023-03-16T18:39:20.077Z,99427.59
2023-03-16T18:41:49.736Z,99440.00
2023-03-16T18:44:22.019Z,99441.72
2023-03-16T18:46:49.818Z,99440.44
2023-03-16T18:49:31.808Z,99434.88
2023-03-16T18:51:58.343Z,99438.44
2023-03-16T18:54:34.942Z,99429.94
2023-03-16T18:57:04.284Z,99436.44
2023-03-16T18:59:33.954Z,99432.56
2023-03-16T19:02:00.402Z,99430.13
2023-03-16T19:04:29.872Z,99441.50
2023-03-16T19:06:57.158Z,99446.84
2023-03-16T19:09:26.835Z,99448.19
2023-03-16T19:11:53.513Z,99444.53
2023-03-16T19:14:23.956Z,99454.53
2023-03-16T19:16:51.807Z,99454.44
2023-03-16T19:19:22.502Z,99452.94
2023-03-16T19:21:51.574Z,99456.22
2023-03-16T19:24:46.272Z,99462.72
2023-03-16T19:27:22.677Z,99451.34
2023-03-16T19:29:52.147Z,99449.34
2023-03-16T19:32:21.242Z,99452.97
2023-03-16T19:34:48.739Z,99444.50
2023-03-16T19:37:16.015Z,99453.34
2023-03-16T19:39:43.647Z,99444.19
2023-03-16T19:42:35.411Z,99444.13
2023-03-16T19:45:03.225Z,99436.44
2023-03-16T19:47:32.914Z,99433.88
2023-03-16T19:50:00.389Z,99420.22
2023-03-16T19:52:28.156Z,99434.59
2023-03-16T19:54:54.535Z,99426.81
2023-03-16T19:57:20.988Z,99426.50
2023-03-16T19:59:55.256Z,99419.56
2023-03-16T20:02:37.937Z,99429.50
2023-03-16T20:05:05.585Z,99427.97
2023-03-16T20:07:37.704Z,99428.25
2023-03-16T20:10:06.337Z,99436.31
2023-03-16T20:12:33.121Z,99422.44
2023-03-16T20:14:59.676Z,99415.31
2023-03-16T20:17:30.183Z,99422.06
2023-03-16T20:19:57.067Z,99420.22
2023-03-16T20:22:27.234Z,99411.81
2023-03-16T20:24:54.450Z,99409.31
2023-03-16T20:27:22.912Z,99411.38
2023-03-16T20:29:50.621Z,99403.91
2023-03-16T20:32:21.736Z,99407.94
2023-03-16T20:34:48.562Z,99408.59
2023-03-16T20:37:26.962Z,99412.91
2023-03-16T20:39:55.521Z,99412.50
2023-03-16T20:42:29.453Z,99408.69
2023-03-16T20:44:56.197Z,99408.69
2023-03-16T20:47:24.245Z,99413.34
2023-03-16T20:49:52.182Z,99412.16
2023-03-16T20:52:31.026Z,99409.88
2023-03-16T20:54:57.889Z,99402.50
2023-03-16T20:57:26.996Z,99405.81
2023-03-16T20:59:55.229Z,99402.72
2023-03-16T21:02:36.099Z,99382.84
2023-03-16T21:05:05.491Z,99392.94
2023-03-16T21:07:31.825Z,99385.81
2023-03-16T21:09:58.186Z,99388.25
2023-03-16T21:12:27.731Z,99385.72
2023-03-16T21:14:56.221Z,99384.59
2023-03-16T21:17:28.935Z,99378.59
2023-03-16T21:19:55.704Z,99380.09
2023-03-16T21:22:34.692Z,99376.56
2023-03-16T21:25:01.035Z,99378.41
2023-03-16T21:27:30.352Z,99371.50
2023-03-16T21:30:00.213Z,99373.81
2023-03-16T21:32:27.861Z,99372.25
2023-03-16T21:34:54.812Z,99370.38
2023-03-16T21:37:25.715Z,99361.22
2023-03-16T21:39:52.449Z,99362.81
2023-03-16T21:42:19.624Z,99355.88
2023-03-16T21:44:46.176Z,99365.44
2023-03-16T21:47:25.072Z,99370.03
2023-03-16T21:49:53.634Z,99365.53
2023-03-16T21:52:30.118Z,99366.66
2023-03-16T21:54:58.210Z,99369.53
2023-03-16T21:57:24.686Z,99362.34
2023-03-16T21:59:51.036Z,99366.06
2023-03-16T22:02:22.406Z,99360.84
2023-03-16T22:04:50.596Z,99360.38
2023-03-16T22:07:17.643Z,99333.81
2023-03-16T22:09:44.011Z,99348.78
2023-03-16T22:12:12.219Z,99341.00
2023-03-16T22:14:39.256Z,99339.22
2023-03-16T22:17:07.122Z,99342.97
2023-03-16T22:19:33.905Z,99341.97
2023-03-16T22:22:00.205Z,99342.69
2023-03-16T22:24:29.288Z,99326.22
2023-03-16T22:26:56.448Z,99317.97
2023-03-16T22:29:28.665Z,99325.28
2023-03-16T22:32:02.687Z,99327.53
2023-03-16T22:34:33.744Z,99327.44
2023-03-16T22:37:01.073Z,99327.44
2023-03-16T22:39:30.089Z,99319.31
2023-03-16T22:41:56.390Z,99303.47
2023-03-16T22:44:23.555Z,99309.56
2023-03-16T22:46:50.921Z,99313.56
2023-03-16T22:49:23.250Z,99304.34
2023-03-16T22:51:52.535Z,99308.34
2023-03-16T22:54:21.899Z,99303.88
2023-03-16T22:56:48.395Z,99299.34
2023-03-16T22:59:18.603Z,99305.41
2023-03-16T23:01:48.413Z,99317.47
2023-03-16T23:04:21.169Z,99313.47
2023-03-16T23:06:52.900Z,99318.19
2023-03-16T23:09:21.631Z,99319.13
2023-03-16T23:11:53.506Z,99307.22
2023-03-16T23:14:23.181Z,99311.34
2023-03-16T23:16:51.859Z,99296.53
2023-03-16T23:19:27.669Z,99302.66
2023-03-16T23:21:56.552Z,99292.34
2023-03-16T23:24:23.479Z,99289.44
2023-03-16T23:26:51.282Z,99280.06
2023-03-16T23:29:17.673Z,99269.13
2023-03-16T23:31:44.078Z,99282.31
2023-03-16T23:34:11.952Z,99275.84
2023-03-16T23:36:38.603Z,99271.16
2023-03-16T23:39:05.105Z,99268.25
2023-03-16T23:41:31.902Z,99270.81
2023-03-16T23:43:58.253Z,99274.53
2023-03-16T23:46:27.765Z,99277.03
2023-03-16T23:48:56.877Z,99283.00
2023-03-16T23:51:27.659Z,99276.53
2023-03-16T23:53:54.760Z,99287.81
2023-03-16T23:56:22.375Z,99273.16
2023-03-16T23:58:49.130Z,99271.16
